createdAt,value
2022-12-28T01:18:47.274Z,1.63
2022-12-28T01:24:01.155Z,1.40
2022-12-28T01:29:10.085Z,1.67
2022-12-28T01:34:22.903Z,1.80
2022-12-28T01:39:32.682Z,1.40
2022-12-28T01:44:50.508Z,1.70
2022-12-28T01:50:09.787Z,1.50
2022-12-28T01:55:22.418Z,1.33
2022-12-28T02:00:37.212Z,1.75
2022-12-28T02:05:57.967Z,2.70
2022-12-28T02:11:10.271Z,1.47
2022-12-28T02:16:20.252Z,1.60
2022-12-28T02:21:39.466Z,2.30
2022-12-28T02:26:59.379Z,1.80
2022-12-28T02:32:20.746Z,1.70
2022-12-28T02:37:32.581Z,1.90
2022-12-28T02:42:42.655Z,1.70
2022-12-28T02:48:06.326Z,1.30
2022-12-28T02:53:34.904Z,1.87
2022-12-28T02:59:02.887Z,2.43
2022-12-28T03:04:21.601Z,2.47
2022-12-28T03:09:35.344Z,2.53
2022-12-28T03:14:46.556Z,3.20
2022-12-28T03:20:18.134Z,2.43
2022-12-28T03:25:43.244Z,3.47
2022-12-28T03:31:04.252Z,2.63
2022-12-28T03:36:15.815Z,2.13
2022-12-28T03:41:31.158Z,2.30
2022-12-28T03:46:42.750Z,2.20
2022-12-28T03:51:51.448Z,1.97
2022-12-28T03:57:01.047Z,2.60
2022-12-28T04:02:08.392Z,2.17
2022-12-28T04:07:15.294Z,2.50
2022-12-28T04:12:25.658Z,2.50
2022-12-28T04:17:33.660Z,1.60
2022-12-28T04:22:40.966Z,1.67
2022-12-28T04:27:50.856Z,2.40
2022-12-28T04:32:59.413Z,2.10
2022-12-28T04:38:06.035Z,2.33
2022-12-28T04:43:15.668Z,2.20
2022-12-28T04:48:22.497Z,2.13
2022-12-28T04:53:29.294Z,2.43
2022-12-28T04:58:39.143Z,2.90
2022-12-28T05:03:54.782Z,2.57
2022-12-28T05:09:03.341Z,2.37
2022-12-28T05:14:12.731Z,8.93
2022-12-28T05:19:19.156Z,6.93
2022-12-28T05:24:25.923Z,8.40
2022-12-28T05:29:35.737Z,6.60
2022-12-28T05:34:42.999Z,3.37
2022-12-28T05:39:49.659Z,3.30
2022-12-28T05:44:59.183Z,3.60
2022-12-28T05:50:06.518Z,3.10
2022-12-28T05:55:14.354Z,2.37
2022-12-28T06:00:23.985Z,3.33
2022-12-28T06:05:30.747Z,2.20
2022-12-28T06:10:37.670Z,2.13
2022-12-28T06:15:47.600Z,2.87
2022-12-28T06:20:57.123Z,2.30
2022-12-28T06:26:04.677Z,4.77
2022-12-28T06:31:22.264Z,6.03
2022-12-28T06:36:40.106Z,3.53
2022-12-28T06:41:54.515Z,2.70
2022-12-28T06:47:05.719Z,2.20
2022-12-28T06:52:12.105Z,2.10
2022-12-28T06:57:18.766Z,1.47
2022-12-28T07:02:28.292Z,2.73
2022-12-28T07:07:35.082Z,2.40
2022-12-28T07:12:47.598Z,1.73
2022-12-28T07:18:05.680Z,1.80
2022-12-28T07:23:12.703Z,2.00
2022-12-28T07:28:19.446Z,2.50
2022-12-28T07:33:29.115Z,1.77
2022-12-28T07:38:36.271Z,2.67
2022-12-28T07:43:43.020Z,2.20
2022-12-28T07:48:52.671Z,1.80
2022-12-28T07:54:00.815Z,1.60
2022-12-28T07:59:09.224Z,1.53
2022-12-28T08:04:19.684Z,2.30
2022-12-28T08:09:26.372Z,1.80
2022-12-28T08:14:34.374Z,1.60
2022-12-28T08:19:43.944Z,2.03
2022-12-28T08:24:52.344Z,1.43
2022-12-28T08:30:00.310Z,2.40
2022-12-28T08:35:16.355Z,1.80
2022-12-28T08:40:28.704Z,1.80
2022-12-28T08:45:36.753Z,2.20
2022-12-28T08:50:46.440Z,4.53
2022-12-28T08:55:52.893Z,2.07
2022-12-28T09:00:59.776Z,1.50
2022-12-28T09:06:12.158Z,2.53
2022-12-28T09:11:26.324Z,2.17
2022-12-28T09:16:33.572Z,2.30
2022-12-28T09:21:43.671Z,2.03
2022-12-28T09:26:55.059Z,1.90
2022-12-28T09:32:09.061Z,4.43
2022-12-28T09:37:24.715Z,2.33
2022-12-28T09:42:37.526Z,1.43
2022-12-28T09:47:49.984Z,1.37
2022-12-28T09:53:07.655Z,2.23
2022-12-28T09:58:18.998Z,1.70
2022-12-28T10:03:28.442Z,3.20
2022-12-28T10:08:39.960Z,3.33
2022-12-28T10:13:55.268Z,2.10
2022-12-28T10:19:02.765Z,1.70
2022-12-28T10:29:41.259Z,1.07
2022-12-28T10:35:01.712Z,1.33
2022-12-28T10:40:26.249Z,1.37
2022-12-28T10:45:40.068Z,1.30
2022-12-28T10:50:55.885Z,1.90
2022-12-28T10:56:20.994Z,1.20
2022-12-28T11:01:33.216Z,1.07
2022-12-28T11:06:55.477Z,2.00
2022-12-28T11:12:24.534Z,2.20
2022-12-28T11:17:34.037Z,0.93
2022-12-28T11:22:45.596Z,1.80
2022-12-28T11:28:03.379Z,3.07
2022-12-28T11:33:11.891Z,3.27
2022-12-28T11:38:43.293Z,1.73
2022-12-28T11:44:03.026Z,1.30
2022-12-28T11:49:33.989Z,1.55
2022-12-28T11:54:59.301Z,1.10
2022-12-28T12:00:36.419Z,0.63
2022-12-28T12:05:59.622Z,1.10
2022-12-28T12:11:25.904Z,1.23
2022-12-28T12:16:38.629Z,4.73
2022-12-28T12:21:50.339Z,1.30
2022-12-28T12:27:00.524Z,1.40
2022-12-28T12:32:09.447Z,0.93
2022-12-28T12:37:36.951Z,2.20
2022-12-28T12:42:53.532Z,1.47
2022-12-28T12:48:22.834Z,1.30
2022-12-28T12:53:55.237Z,2.80
2022-12-28T12:59:13.603Z,1.47
2022-12-28T13:04:24.643Z,1.80
2022-12-28T13:09:35.475Z,1.00
2022-12-28T13:14:42.539Z,1.73
2022-12-28T13:19:49.697Z,2.27
2022-12-28T13:24:59.737Z,2.60
2022-12-28T13:30:07.728Z,1.90
2022-12-28T13:35:22.929Z,1.50
2022-12-28T13:40:32.404Z,1.47
2022-12-28T13:45:40.228Z,1.58
2022-12-28T13:50:57.222Z,1.77
2022-12-28T13:56:11.320Z,1.00
2022-12-28T14:01:22.838Z,1.70
2022-12-28T14:06:31.793Z,0.73
2022-12-28T14:11:42.659Z,1.30
2022-12-28T14:16:51.157Z,0.80
2022-12-28T14:21:59.297Z,2.53
2022-12-28T14:27:10.138Z,1.50
2022-12-28T14:32:19.497Z,1.17
2022-12-28T14:37:30.745Z,1.25
2022-12-28T14:42:41.244Z,1.50
2022-12-28T14:47:50.994Z,1.97
2022-12-28T14:53:07.486Z,1.88
2022-12-28T14:58:25.734Z,1.53
2022-12-28T15:03:35.453Z,2.10
2022-12-28T15:08:44.900Z,1.13
2022-12-28T15:13:56.091Z,2.13
2022-12-28T15:19:04.505Z,1.40
2022-12-28T15:24:15.762Z,2.00
2022-12-28T15:29:47.824Z,1.93
2022-12-28T15:34:55.476Z,1.60
2022-12-28T15:40:02.938Z,0.83
2022-12-28T15:45:14.421Z,1.73
2022-12-28T15:50:22.069Z,1.90
2022-12-28T15:55:29.472Z,2.10
2022-12-28T16:00:45.704Z,1.17
2022-12-28T16:05:54.377Z,1.43
2022-12-28T16:11:11.971Z,1.80
2022-12-28T16:16:21.827Z,1.93
2022-12-28T16:21:30.092Z,0.87
2022-12-28T16:26:37.193Z,0.97
2022-12-28T16:31:47.542Z,1.70
2022-12-28T16:36:57.777Z,2.23
2022-12-28T16:42:05.482Z,1.80
2022-12-28T16:47:15.457Z,1.50
2022-12-28T16:52:25.088Z,2.07
2022-12-28T16:57:32.948Z,1.30
2022-12-28T17:02:43.186Z,0.80
2022-12-28T17:07:51.322Z,2.60
2022-12-28T17:12:59.180Z,0.67
2022-12-28T17:18:10.831Z,0.60
2022-12-28T17:23:18.235Z,0.80
2022-12-28T17:28:26.276Z,1.40
2022-12-28T17:33:39.771Z,1.27
2022-12-28T17:38:48.096Z,2.83
2022-12-28T17:43:56.958Z,0.90
2022-12-28T17:54:17.476Z,0.87
2022-12-28T17:59:38.139Z,1.37
2022-12-28T18:05:03.675Z,0.80
2022-12-28T18:10:29.680Z,0.70
2022-12-28T18:15:51.902Z,0.50
2022-12-28T18:21:23.884Z,0.70
2022-12-28T18:26:44.860Z,1.00
2022-12-28T18:32:11.797Z,0.80
2022-12-28T18:37:34.881Z,0.70
2022-12-28T18:43:07.687Z,0.40
2022-12-28T18:48:34.837Z,0.50
2022-12-28T18:54:11.824Z,0.20
2022-12-28T18:59:38.978Z,1.33
2022-12-28T19:05:13.880Z,0.37
2022-12-28T19:10:45.035Z,1.83
2022-12-28T19:21:53.653Z,0.50
2022-12-28T19:27:36.926Z,0.50
2022-12-28T19:33:04.009Z,0.40
2022-12-28T19:38:37.561Z,1.00
2022-12-28T19:44:07.963Z,0.30
2022-12-28T19:49:41.907Z,0.40
2022-12-28T19:55:09.012Z,0.50
2022-12-28T20:00:38.375Z,0.93
2022-12-28T20:06:05.115Z,0.40
2022-12-28T20:11:31.100Z,0.20
2022-12-28T20:17:07.663Z,0.73
2022-12-28T20:22:33.479Z,0.80
2022-12-28T20:28:07.800Z,0.57
2022-12-28T20:33:36.452Z,1.42
2022-12-28T20:39:10.834Z,2.00
2022-12-28T20:44:42.763Z,1.15
2022-12-28T20:50:19.565Z,2.03
2022-12-28T20:55:46.811Z,1.17
2022-12-28T21:01:20.874Z,0.53
2022-12-28T21:12:24.224Z,1.97
2022-12-28T21:18:02.305Z,1.20
2022-12-28T21:23:35.458Z,1.33
2022-12-28T21:28:56.089Z,0.80
2022-12-28T21:34:23.713Z,1.00
2022-12-28T21:39:46.875Z,1.33
2022-12-28T21:45:14.557Z,1.20
2022-12-28T21:50:34.695Z,0.57
2022-12-28T21:56:03.595Z,0.27
2022-12-28T22:01:35.664Z,1.00
2022-12-28T22:07:01.580Z,0.80
2022-12-28T22:12:37.686Z,0.87
2022-12-28T22:18:36.672Z,1.10
2022-12-28T22:24:13.722Z,0.52
2022-12-28T22:29:50.499Z,0.97
2022-12-28T22:35:16.704Z,1.07
2022-12-28T22:40:49.648Z,0.70
2022-12-28T22:46:27.622Z,1.13
2022-12-28T23:27:58.921Z,0.20
2022-12-28T23:33:34.653Z,1.75
2022-12-28T23:39:01.758Z,2.00
2022-12-28T23:44:39.922Z,0.60
2022-12-28T23:50:06.725Z,0.40
2022-12-28T23:55:39.590Z,0.90
